Terminal Aerodrome Forecast
Issued by NWS Cleveland, OH

Home | Current Version | Previous Version | Graphics & Text | Print | Product List | Glossary Off
Versions: 1 2 3 4 5 6 7 8 9 10 11 12 13 14 15 16 17 18 19 20 21 22

000
FTUS41 KCLE 261730
TAFCLE
TAF
KCLE 261730Z 2618/2724 21014G20KT P6SM SCT035 BKN050
     FM262300 18015G25KT 6SM -SHRA VCTS BKN040CB OVC080
     FM270200 19012G20KT P6SM BKN040 OVC200
     FM270800 20012KT 4SM BR SCT010 BKN200
     FM271300 20012KT P6SM SCT020
     FM271900 21013KT P6SM BKN035=

USA.gov is the U.S. government's official web portal to all federal, state and local government web resources and services.